Marche, Arkansas
Current Conditions -  °F | °C
As of 11:53 AM on Friday 31 Oct 2014 (Local Time) from KLIT Reporting Station
Scattered Clouds Scattered Clouds  
Wind Chill: 64°   Ceiling: Unl
Heat Index: 64°   Visibility: 10mi
Dew Point: 39°   Wind: 18mph
Humidity: 40%   Direction: 350°N
Pressure: 30.23"   Gusts: 25mph
Location:  34.757°N, 92.1411°W
Report Text: KLIT 311653Z 35016G22KT 10SM SCT045 18/04 A3023 RMK AO2 SLP237 T01780039
Loading
Personal Weather Stations






























Interactive Weather Map
Tropical Storm Tracking
New forecast layout! Learn more

10-Day Weather Forecast

Advertisements
Track Severe Weather on mobile